Time;durP1;ratioP1;P1;durP2;ratioP2;P2;SDS_P1;SDS_P2;PMS_P1;PMS_P2;Temp;Humidity;BMP_temperature;BMP_pressure;BME280_temperature;BME280_humidity;BME280_pressure;Samples;Min_cycle;Max_cycle;Signal;HPM_P1;HPM_P2
2024/03/31 00:00:03;;;;;;;18.40;6.18;;;;;;;16.42;47.92;99185.44;4953600;28;20076;-93
2024/03/31 00:02:30;;;;;;;21.92;4.72;;;;;;;16.40;46.53;99185.75;4968225;28;20037;-93
2024/03/31 00:04:56;;;;;;;14.15;3.67;;;;;;;16.30;45.63;99175.94;4950970;28;20058;-95
2024/03/31 00:07:22;;;;;;;17.80;5.10;;;;;;;16.34;46.85;99187.00;4952245;28;20045;-92
2024/03/31 00:09:48;;;;;;;14.95;4.93;;;;;;;16.36;47.41;99191.00;4950603;28;20100;-94
2024/03/31 00:12:15;;;;;;;14.65;4.82;;;;;;;16.34;46.62;99197.88;4952213;28;20026;-94
2024/03/31 00:14:40;;;;;;;13.80;3.10;;;;;;;16.29;45.30;99185.22;4953087;28;20030;-94
2024/03/31 00:17:06;;;;;;;13.43;3.42;;;;;;;16.29;44.61;99182.50;4967240;28;20022;-92
2024/03/31 00:19:32;;;;;;;9.55;2.83;;;;;;;16.09;45.68;99169.44;4951923;28;20056;-93
2024/03/31 00:21:58;;;;;;;20.40;4.20;;;;;;;16.12;45.70;99177.78;4949737;28;20042;-92
2024/03/31 00:24:26;;;;;;;21.80;4.93;;;;;;;16.10;46.93;99177.28;4950695;28;20030;-94
2024/03/31 00:26:52;;;;;;;16.25;3.70;;;;;;;16.04;47.17;99177.69;4950752;28;20076;-93
2024/03/31 00:29:17;;;;;;;16.17;3.50;;;;;;;16.09;46.55;99185.72;4951047;28;20125;-93
2024/03/31 00:31:44;;;;;;;10.95;3.05;;;;;;;16.01;45.75;99178.31;4967064;28;20121;-92
2024/03/31 00:34:09;;;;;;;13.35;3.03;;;;;;;16.02;45.92;99193.50;4951073;28;20030;-93
2024/03/31 00:36:35;;;;;;;17.92;3.00;;;;;;;15.97;46.30;99189.00;4966975;28;20031;-94
2024/03/31 00:39:01;;;;;;;11.07;3.13;;;;;;;15.91;45.42;99180.16;4950328;28;20038;-93
2024/03/31 00:41:26;;;;;;;12.93;3.00;;;;;;;15.85;45.24;99164.31;4949964;28;20075;-94
2024/03/31 00:43:52;;;;;;;9.30;3.28;;;;;;;15.92;45.23;99176.34;4950461;28;20072;-93
2024/03/31 00:46:17;;;;;;;10.45;3.20;;;;;;;15.97;45.43;99186.28;4966184;28;20122;-93
2024/03/31 00:48:49;;;;;;;17.25;3.35;;;;;;;15.85;46.21;99177.88;4966952;28;20030;-94
2024/03/31 00:51:17;;;;;;;15.45;4.82;;;;;;;15.70;48.66;99168.94;4968847;28;20061;-95
2024/03/31 00:53:43;;;;;;;15.45;4.25;;;;;;;15.56;51.21;99181.75;4950881;28;20037;-93
2024/03/31 00:56:10;;;;;;;13.30;4.88;;;;;;;15.42;51.69;99176.41;4950785;28;20061;-94
2024/03/31 00:58:37;;;;;;;17.73;4.32;;;;;;;15.26;51.93;99175.13;4951559;28;20025;-94
2024/03/31 01:01:03;;;;;;;15.65;5.03;;;;;;;15.12;52.13;99178.63;4949652;28;20400;-93
2024/03/31 01:03:28;;;;;;;14.90;5.45;;;;;;;15.17;52.14;99180.47;4949629;28;20126;-93
2024/03/31 01:05:55;;;;;;;18.45;5.72;;;;;;;15.09;52.41;99194.72;4950180;28;20026;-95
2024/03/31 01:08:20;;;;;;;15.18;5.78;;;;;;;15.11;52.66;99193.31;4949773;28;20030;-93
2024/03/31 01:10:46;;;;;;;16.65;5.63;;;;;;;15.20;52.50;99208.88;4949254;28;20033;-94
2024/03/31 01:13:12;;;;;;;18.73;5.90;;;;;;;15.05;52.74;99193.72;4963961;28;20038;-94
2024/03/31 01:15:37;;;;;;;18.23;6.15;;;;;;;15.07;53.05;99189.59;4966345;28;20060;-91
2024/03/31 01:18:03;;;;;;;14.43;5.30;;;;;;;15.05;52.78;99191.81;4949219;28;20121;-94
2024/03/31 01:20:29;;;;;;;12.80;4.60;;;;;;;14.91;52.73;99172.84;4948998;28;20113;-93
2024/03/31 01:22:55;;;;;;;14.75;4.95;;;;;;;15.06;52.53;99201.53;4948241;28;20477;-94
2024/03/31 01:25:20;;;;;;;12.27;4.65;;;;;;;14.93;52.35;99186.09;4964401;28;20035;-93
2024/03/31 01:27:46;;;;;;;19.00;4.40;;;;;;;14.91;52.38;99199.94;4947888;28;20078;-94
2024/03/31 01:30:11;;;;;;;17.27;4.85;;;;;;;14.86;52.61;99197.34;4949251;28;20068;-94
2024/03/31 01:32:38;;;;;;;8.90;3.33;;;;;;;14.93;52.39;99210.50;4947396;28;20515;-93
2024/03/31 01:35:03;;;;;;;17.65;3.42;;;;;;;14.66;53.15;99208.56;4948970;28;20103;-93
2024/03/31 01:37:29;;;;;;;11.90;2.97;;;;;;;14.70;53.04;99210.38;4948154;28;20035;-93
2024/03/31 01:39:55;;;;;;;17.60;3.10;;;;;;;14.59;52.84;99202.72;4947800;28;20086;-94
2024/03/31 01:42:22;;;;;;;13.32;2.92;;;;;;;14.59;53.28;99219.81;4964270;28;20038;-95
2024/03/31 01:44:48;;;;;;;17.95;3.55;;;;;;;14.42;53.10;99198.69;4968183;28;20109;-92
2024/03/31 01:47:13;;;;;;;15.23;3.53;;;;;;;14.34;53.37;99212.91;4963408;28;20054;-92
2024/03/31 01:49:39;;;;;;;14.90;3.17;;;;;;;14.35;53.71;99231.56;4948251;28;20034;-93
2024/03/31 01:52:06;;;;;;;14.40;3.83;;;;;;;14.25;54.04;99229.00;4963297;28;20137;-94
2024/03/31 01:54:33;;;;;;;15.95;3.67;;;;;;;14.25;53.89;99241.75;4965045;28;20054;-92
2024/03/31 01:57:00;;;;;;;17.67;3.20;;;;;;;14.13;53.87;99220.53;4964330;28;20378;-93
2024/03/31 01:59:26;;;;;;;15.85;4.70;;;;;;;13.99;53.95;99203.47;4947702;28;20151;-94
2024/03/31 02:01:52;;;;;;;17.38;3.80;;;;;;;14.06;54.06;99209.31;4963646;28;20026;-95
2024/03/31 02:04:17;;;;;;;11.60;3.45;;;;;;;14.20;54.21;99237.22;4947355;28;20030;-94
2024/03/31 02:06:43;;;;;;;14.68;3.60;;;;;;;14.03;54.22;99234.25;4947433;28;20030;-94
2024/03/31 02:09:09;;;;;;;14.10;4.13;;;;;;;13.99;54.03;99246.78;4948002;28;20102;-94
2024/03/31 02:11:35;;;;;;;15.23;3.35;;;;;;;13.87;54.29;99223.66;4963466;28;20062;-93
2024/03/31 02:14:02;;;;;;;7.88;3.20;;;;;;;13.71;54.48;99216.88;4947701;28;20122;-93
2024/03/31 02:16:28;;;;;;;16.08;3.28;;;;;;;13.55;54.79;99213.59;4949309;28;20026;-93
2024/03/31 02:18:54;;;;;;;12.50;3.15;;;;;;;13.51;54.79;99232.28;4948448;28;20470;-92
2024/03/31 02:21:20;;;;;;;14.55;3.30;;;;;;;13.31;54.70;99230.66;4963835;28;20570;-94
2024/03/31 02:23:46;;;;;;;13.90;2.40;;;;;;;13.34;54.16;99235.50;4948074;28;20038;-94
2024/03/31 02:26:11;;;;;;;11.10;2.90;;;;;;;13.27;54.25;99223.38;4948183;28;20057;-95
2024/03/31 02:28:37;;;;;;;13.50;2.30;;;;;;;13.24;54.35;99229.34;4949006;28;20034;-94
2024/03/31 02:31:03;;;;;;;18.55;3.28;;;;;;;13.37;54.52;99253.03;4947545;28;20058;-94
2024/03/31 02:33:28;;;;;;;8.13;2.60;;;;;;;13.13;54.62;99218.66;4963238;28;20065;-92
2024/03/31 02:35:54;;;;;;;8.38;2.42;;;;;;;13.18;54.63;99233.22;4948173;28;20054;-93
2024/03/31 02:38:20;;;;;;;16.67;3.05;;;;;;;13.12;54.85;99238.69;4948104;28;20129;-92
2024/03/31 02:40:45;;;;;;;18.73;2.78;;;;;;;13.13;54.95;99258.41;4947945;28;20089;-94
2024/03/31 02:43:12;;;;;;;13.52;2.42;;;;;;;13.16;54.95;99244.34;4963679;28;20030;-93
2024/03/31 02:45:37;;;;;;;10.82;3.10;;;;;;;13.22;54.57;99245.06;4966759;28;20022;-93
2024/03/31 02:48:05;;;;;;;8.07;2.47;;;;;;;13.27;55.56;99269.34;4952490;28;20085;-92
2024/03/31 02:50:31;;;;;;;11.50;2.72;;;;;;;13.12;55.47;99252.22;4966227;28;20037;-94
2024/03/31 02:52:57;;;;;;;11.98;3.50;;;;;;;12.96;55.73;99239.97;4951377;28;20105;-93
2024/03/31 02:55:22;;;;;;;12.38;2.60;;;;;;;12.98;55.99;99253.19;4951197;28;20481;-93
2024/03/31 02:57:48;;;;;;;12.85;2.75;;;;;;;12.91;56.09;99254.34;4951310;28;20061;-94
2024/03/31 03:00:15;;;;;;;17.17;3.17;;;;;;;12.83;56.28;99249.56;4951067;28;20058;-92
2024/03/31 03:02:41;;;;;;;13.60;3.42;;;;;;;12.92;56.14;99265.94;4950427;28;20110;-92
2024/03/31 03:05:07;;;;;;;13.50;2.83;;;;;;;12.93;56.24;99278.38;4951672;28;20093;-92
2024/03/31 03:07:33;;;;;;;16.17;3.50;;;;;;;12.81;56.19;99253.66;4951149;28;20464;-93
2024/03/31 03:09:58;;;;;;;11.20;3.15;;;;;;;12.79;57.15;99250.44;4950863;28;20026;-93
2024/03/31 03:12:27;;;;;;;12.02;2.97;;;;;;;12.88;57.33;99283.81;4967663;28;20041;-93
2024/03/31 03:14:53;;;;;;;9.32;2.50;;;;;;;12.71;57.50;99258.03;4950739;28;20041;-94
2024/03/31 03:17:19;;;;;;;12.88;2.65;;;;;;;12.70;57.91;99272.66;4952025;28;20464;-94
2024/03/31 03:19:45;;;;;;;15.80;2.65;;;;;;;12.52;58.14;99255.25;4966954;28;20033;-92
2024/03/31 03:22:10;;;;;;;13.88;2.65;;;;;;;12.58;58.40;99274.13;4953682;28;20062;-93
2024/03/31 03:24:36;;;;;;;13.88;2.95;;;;;;;12.45;58.36;99253.97;4951772;28;20094;-94
2024/03/31 03:27:02;;;;;;;13.85;3.22;;;;;;;12.53;57.87;99267.69;4950298;28;20018;-94
2024/03/31 03:29:28;;;;;;;10.18;2.75;;;;;;;12.39;57.94;99247.00;4966459;28;20054;-93
2024/03/31 03:31:54;;;;;;;12.70;2.90;;;;;;;12.38;57.85;99250.81;4950829;28;20030;-93
2024/03/31 03:34:19;;;;;;;16.23;3.25;;;;;;;12.30;58.13;99247.59;4950707;28;20117;-92
2024/03/31 03:36:45;;;;;;;15.68;2.92;;;;;;;12.51;57.75;99261.75;4951059;28;20155;-93
2024/03/31 03:39:10;;;;;;;20.52;4.40;;;;;;;12.59;57.46;99263.03;4950068;28;20032;-93
2024/03/31 03:44:58;;;;;;;14.27;3.47;;;;;;;12.47;57.86;99268.00;5000342;28;20092;-93
2024/03/31 03:47:24;;;;;;;16.65;3.70;;;;;;;12.34;58.21;99255.94;4949594;28;20125;-93
2024/03/31 03:49:51;;;;;;;16.33;3.92;;;;;;;12.30;58.24;99261.09;4951359;28;20026;-93
2024/03/31 03:52:17;;;;;;;17.65;4.05;;;;;;;12.46;58.14;99283.41;4950093;28;20421;-93
2024/03/31 03:54:43;;;;;;;15.77;3.85;;;;;;;12.46;57.63;99275.28;4950373;28;20022;-94
2024/03/31 03:57:09;;;;;;;15.73;4.32;;;;;;;12.45;57.86;99270.16;4949400;28;20504;-94
2024/03/31 03:59:38;;;;;;;19.30;4.63;;;;;;;12.49;57.69;99268.50;4966141;28;20180;-93
2024/03/31 04:02:03;;;;;;;18.52;4.70;;;;;;;12.45;58.03;99275.56;4951265;28;20380;-93
2024/03/31 04:04:29;;;;;;;14.98;4.18;;;;;;;12.38;58.67;99280.50;4950982;28;20026;-93
2024/03/31 04:06:55;;;;;;;20.35;5.53;;;;;;;12.36;58.58;99272.69;4950156;28;20026;-94
2024/03/31 04:09:20;;;;;;;18.35;3.60;;;;;;;12.31;58.70;99278.94;4952190;28;20587;-92
2024/03/31 04:11:46;;;;;;;13.13;3.65;;;;;;;12.28;58.77;99290.28;4950257;28;20057;-92
2024/03/31 04:14:11;;;;;;;11.52;3.55;;;;;;;12.17;58.63;99272.56;4950441;28;20030;-95
2024/03/31 04:16:37;;;;;;;11.43;3.88;;;;;;;12.21;58.37;99276.31;4965773;28;20022;-94
2024/03/31 04:19:03;;;;;;;18.55;3.92;;;;;;;12.37;58.05;99287.81;4949765;28;20143;-93
2024/03/31 04:21:28;;;;;;;14.88;3.72;;;;;;;12.34;58.38;99289.16;4949622;28;20029;-92
2024/03/31 04:23:54;;;;;;;23.60;4.18;;;;;;;12.29;58.48;99280.31;4949259;28;20025;-93
2024/03/31 04:26:25;;;;;;;15.73;4.10;;;;;;;12.36;57.97;99263.78;4950248;28;20065;-93
2024/03/31 04:28:54;;;;;;;14.32;3.85;;;;;;;12.66;57.79;99293.22;4951510;28;20092;-92
2024/03/31 04:31:20;;;;;;;17.77;4.30;;;;;;;12.71;58.08;99290.47;4950873;28;20555;-92
2024/03/31 04:33:45;;;;;;;18.40;3.67;;;;;;;12.58;58.56;99284.94;4949800;28;20034;-93
2024/03/31 04:36:11;;;;;;;24.30;4.40;;;;;;;12.47;58.61;99276.91;4966062;28;20031;-94
2024/03/31 04:38:37;;;;;;;15.63;3.67;;;;;;;12.47;58.69;99287.72;4949684;28;20045;-93
2024/03/31 04:41:03;;;;;;;16.73;4.22;;;;;;;12.53;58.43;99294.69;4965193;28;20026;-93
2024/03/31 04:43:28;;;;;;;16.35;4.18;;;;;;;12.52;58.08;99294.97;4950050;28;20030;-94
2024/03/31 04:46:06;;;;;;;11.57;3.67;;;;;;;12.69;57.52;99300.75;4965665;28;20026;-93
2024/03/31 04:48:36;;;;;;;9.75;3.35;;;;;;;12.84;57.19;99293.59;4948811;28;20076;-92
2024/03/31 04:51:07;;;;;;;15.38;3.55;;;;;;;12.84;57.40;99296.28;4948949;28;20030;-93
2024/03/31 04:53:34;;;;;;;14.07;3.60;;;;;;;12.92;57.68;99314.59;4949089;28;20033;-93
2024/03/31 04:56:03;;;;;;;18.55;3.80;;;;;;;12.81;57.75;99302.28;4949057;28;20463;-93
2024/03/31 04:58:28;;;;;;;14.50;3.33;;;;;;;12.84;57.28;99305.19;4948648;28;20030;-94
2024/03/31 05:00:54;;;;;;;17.80;4.28;;;;;;;12.90;57.33;99311.38;4949212;28;20033;-94
2024/03/31 05:03:21;;;;;;;14.52;3.58;;;;;;;12.97;57.27;99321.84;4949927;28;20031;-93
2024/03/31 05:05:47;;;;;;;23.10;4.95;;;;;;;13.05;57.18;99319.34;4948772;28;20014;-93
2024/03/31 05:08:12;;;;;;;17.38;4.45;;;;;;;13.07;57.39;99327.97;4948169;28;20125;-93
2024/03/31 05:10:38;;;;;;;15.73;3.33;;;;;;;13.19;57.01;99326.75;4949296;28;20377;-92
2024/03/31 05:13:04;;;;;;;15.48;3.78;;;;;;;13.24;57.02;99326.69;4949211;28;20030;-93
2024/03/31 05:15:29;;;;;;;17.20;3.28;;;;;;;13.26;56.68;99324.50;4949658;28;20034;-93
2024/03/31 05:17:55;;;;;;;22.52;4.53;;;;;;;13.25;56.87;99306.69;4948694;28;20033;-95
2024/03/31 05:20:21;;;;;;;14.30;3.25;;;;;;;13.38;56.71;99324.16;4965438;28;20038;-94
2024/03/31 05:22:47;;;;;;;17.67;3.88;;;;;;;13.45;56.66;99325.41;4965492;28;20037;-93
2024/03/31 05:25:16;;;;;;;24.70;4.43;;;;;;;13.55;55.96;99332.63;4980362;28;20046;-92
2024/03/31 05:27:45;;;;;;;12.77;3.55;;;;;;;13.82;55.58;99342.00;4950579;28;20061;-93
2024/03/31 05:30:10;;;;;;;12.52;3.65;;;;;;;13.82;55.26;99339.28;4948576;28;20065;-93
2024/03/31 05:32:36;;;;;;;17.25;3.92;;;;;;;13.87;54.92;99325.72;4964359;28;20022;-93
2024/03/31 05:35:04;;;;;;;17.60;3.70;;;;;;;14.11;54.62;99352.72;4949135;28;20080;-93
2024/03/31 05:37:30;;;;;;;14.57;3.40;;;;;;;14.20;54.15;99337.44;4948921;28;20026;-92
2024/03/31 05:39:56;;;;;;;13.85;3.00;;;;;;;14.42;52.33;99360.38;4948385;28;20456;-93
2024/03/31 05:42:21;;;;;;;9.13;2.63;;;;;;;14.51;50.54;99345.91;4964946;28;20041;-93
2024/03/31 05:44:50;;;;;;;10.18;2.50;;;;;;;14.49;49.00;99326.41;4949005;28;20485;-94
2024/03/31 05:47:16;;;;;;;13.35;2.90;;;;;;;14.70;47.53;99335.03;4950062;28;20034;-92
2024/03/31 05:49:41;;;;;;;8.32;2.70;;;;;;;14.82;47.44;99340.00;4949137;28;20049;-93
2024/03/31 05:52:07;;;;;;;12.13;2.70;;;;;;;15.00;46.94;99343.75;4948032;28;20057;-94
2024/03/31 05:54:33;;;;;;;12.32;2.13;;;;;;;15.10;47.12;99349.00;4949604;28;20076;-93
2024/03/31 05:56:58;;;;;;;7.68;2.17;;;;;;;15.11;45.32;99334.34;4967347;28;20108;-92
2024/03/31 05:59:26;;;;;;;7.05;2.75;;;;;;;15.40;45.20;99359.56;4949333;28;20116;-93
2024/03/31 06:01:54;;;;;;;14.23;2.45;;;;;;;15.32;46.23;99331.25;4964313;28;20030;-93
2024/03/31 06:04:20;;;;;;;8.75;2.47;;;;;;;15.65;45.82;99358.28;4947713;28;20034;-94
2024/03/31 06:06:46;;;;;;;15.00;2.45;;;;;;;15.83;46.23;99365.50;4964909;28;20041;-95
2024/03/31 06:09:12;;;;;;;11.88;2.22;;;;;;;15.82;46.10;99349.56;4949633;28;20436;-93
2024/03/31 06:11:40;;;;;;;17.65;3.33;;;;;;;15.90;45.00;99341.50;4948613;28;20026;-93
2024/03/31 06:14:06;;;;;;;17.25;3.55;;;;;;;16.03;46.66;99358.06;4949951;28;20030;-94
2024/03/31 06:16:32;;;;;;;20.40;6.05;;;;;;;16.14;48.79;99365.69;4948822;28;20511;-94
2024/03/31 06:18:57;;;;;;;13.13;4.15;;;;;;;16.26;50.31;99376.00;4966041;28;20026;-94
2024/03/31 06:21:23;;;;;;;13.15;4.00;;;;;;;16.33;46.94;99364.72;4969068;28;20026;-93
2024/03/31 06:23:50;;;;;;;8.35;2.25;;;;;;;16.34;44.05;99355.47;4953206;28;20515;-92
2024/03/31 06:26:15;;;;;;;5.57;2.03;;;;;;;16.67;43.56;99382.44;4952470;28;20030;-91
2024/03/31 06:28:41;;;;;;;8.60;2.50;;;;;;;16.64;43.17;99356.63;4952334;28;20030;-93
2024/03/31 06:31:07;;;;;;;8.88;2.38;;;;;;;16.93;42.96;99385.34;4950767;28;20116;-93
2024/03/31 06:33:32;;;;;;;9.30;2.10;;;;;;;16.88;43.06;99369.16;4968152;28;20036;-94
2024/03/31 06:35:58;;;;;;;8.57;2.63;;;;;;;17.07;42.75;99379.84;4952754;28;20038;-94
2024/03/31 06:38:24;;;;;;;11.32;3.97;;;;;;;17.12;42.27;99368.81;4952080;28;20121;-93
2024/03/31 06:40:49;;;;;;;8.02;3.95;;;;;;;17.16;41.87;99359.72;4952701;28;20041;-94
2024/03/31 06:43:15;;;;;;;9.10;2.45;;;;;;;17.34;41.57;99362.50;4951380;28;20030;-94
2024/03/31 06:45:41;;;;;;;7.43;2.40;;;;;;;17.42;40.79;99369.13;4952081;28;20041;-94
2024/03/31 06:48:10;;;;;;;15.32;2.78;;;;;;;17.52;40.27;99366.13;4967944;28;20037;-95
2024/03/31 06:50:35;;;;;;;12.23;2.45;;;;;;;17.51;39.88;99359.06;4952849;28;20034;-92
2024/03/31 06:53:01;;;;;;;12.65;2.40;;;;;;;17.73;39.85;99363.63;4952089;28;20116;-95
2024/03/31 06:55:27;;;;;;;7.50;2.50;;;;;;;17.85;39.25;99371.22;4967479;28;20053;-95
2024/03/31 06:57:52;;;;;;;13.25;2.90;;;;;;;17.92;38.85;99361.44;4967219;28;20033;-93
2024/03/31 07:00:18;;;;;;;10.70;2.60;;;;;;;18.17;38.62;99378.16;4967466;28;20125;-94
2024/03/31 07:02:50;;;;;;;12.68;3.03;;;;;;;18.26;38.64;99367.25;4951261;28;20473;-94
2024/03/31 07:05:15;;;;;;;9.55;2.53;;;;;;;18.45;38.59;99369.66;4953607;28;20041;-93
2024/03/31 07:07:41;;;;;;;11.48;2.85;;;;;;;18.63;38.39;99379.44;4952299;28;20034;-94
2024/03/31 07:10:07;;;;;;;9.82;3.10;;;;;;;18.73;38.97;99364.69;4966843;28;20129;-94
2024/03/31 07:12:32;;;;;;;9.23;3.58;;;;;;;18.91;38.28;99373.69;4951549;28;20488;-95
2024/03/31 07:14:58;;;;;;;7.57;2.22;;;;;;;18.92;38.05;99356.19;4966558;28;20029;-93
2024/03/31 07:17:24;;;;;;;10.80;2.95;;;;;;;19.15;38.70;99362.22;4951442;28;20065;-92
2024/03/31 07:19:49;;;;;;;12.25;2.45;;;;;;;19.18;37.51;99351.44;4967304;28;20034;-94
2024/03/31 07:22:15;;;;;;;11.32;2.60;;;;;;;19.43;37.86;99359.09;4950859;28;20113;-93
2024/03/31 07:24:43;;;;;;;10.00;2.53;;;;;;;19.56;37.63;99372.50;4952167;28;20133;-93
2024/03/31 07:27:11;;;;;;;5.72;2.00;;;;;;;19.62;37.27;99355.94;4950895;28;20041;-92
2024/03/31 07:29:36;;;;;;;8.35;2.50;;;;;;;19.87;36.64;99371.41;4965970;28;20492;-95
2024/03/31 07:32:02;;;;;;;11.55;2.55;;;;;;;19.95;36.70;99362.34;4950386;28;20113;-94
2024/03/31 07:34:28;;;;;;;8.48;1.95;;;;;;;20.18;36.46;99362.03;4966426;28;20502;-94
2024/03/31 07:36:53;;;;;;;9.55;2.10;;;;;;;20.36;36.39;99360.00;4967469;28;20488;-95
2024/03/31 07:39:19;;;;;;;11.05;2.47;;;;;;;20.46;35.91;99362.31;4953672;28;20088;-94
2024/03/31 07:41:45;;;;;;;11.27;2.45;;;;;;;20.63;35.97;99360.56;4951783;28;20530;-95
2024/03/31 07:44:11;;;;;;;9.65;2.30;;;;;;;20.83;35.66;99356.22;4951409;28;20065;-92
2024/03/31 07:46:37;;;;;;;8.38;2.67;;;;;;;20.90;36.10;99346.31;4950683;28;20037;-94
2024/03/31 07:49:02;;;;;;;10.52;2.72;;;;;;;21.07;35.61;99367.22;4966042;28;20121;-95
2024/03/31 07:51:29;;;;;;;11.95;2.78;;;;;;;21.23;35.34;99361.09;4967652;28;20058;-94
2024/03/31 07:53:55;;;;;;;5.15;2.75;;;;;;;21.37;34.28;99364.31;4950725;28;20062;-94
2024/03/31 07:56:20;;;;;;;8.93;2.30;;;;;;;21.58;33.68;99380.66;4951014;28;20053;-96
2024/03/31 07:58:46;;;;;;;12.02;2.83;;;;;;;21.75;33.99;99374.19;4967851;28;20018;-93
2024/03/31 08:01:12;;;;;;;12.52;2.78;;;;;;;21.86;33.86;99364.34;4951862;28;20404;-95
2024/03/31 08:03:37;;;;;;;13.75;3.35;;;;;;;22.08;33.05;99363.06;4951203;28;20029;-94
2024/03/31 08:06:06;;;;;;;8.23;3.17;;;;;;;22.31;32.23;99368.88;4951010;28;20057;-93
2024/03/31 08:08:32;;;;;;;10.50;3.05;;;;;;;22.45;31.59;99362.19;4966445;28;20026;-94
2024/03/31 08:10:57;;;;;;;9.07;2.88;;;;;;;22.54;31.32;99354.63;4951212;28;20030;-94
2024/03/31 08:13:23;;;;;;;14.63;3.80;;;;;;;22.66;31.04;99354.56;4950976;28;20022;-94
2024/03/31 08:15:49;;;;;;;9.50;3.20;;;;;;;22.84;31.41;99352.28;4951056;28;20026;-95
2024/03/31 08:18:18;;;;;;;13.00;3.30;;;;;;;22.88;31.67;99342.19;4966755;28;20033;-91
2024/03/31 08:20:43;;;;;;;19.15;3.47;;;;;;;22.96;31.23;99343.19;4967979;28;20046;-92
2024/03/31 08:23:09;;;;;;;7.82;2.75;;;;;;;23.04;30.65;99320.28;4967891;28;20037;-92
2024/03/31 08:25:37;;;;;;;9.68;3.10;;;;;;;23.39;30.29;99347.84;4967656;28;20069;-94
2024/03/31 08:28:04;;;;;;;10.10;2.97;;;;;;;23.38;30.11;99320.72;4967030;28;20064;-95
2024/03/31 08:30:30;;;;;;;5.93;1.98;;;;;;;23.46;29.85;99318.97;4951813;28;20030;-94
2024/03/31 08:32:56;;;;;;;5.97;2.05;;;;;;;23.55;29.26;99316.81;4966938;28;20060;-95
2024/03/31 08:35:21;;;;;;;8.05;1.50;;;;;;;23.74;27.84;99340.81;4952621;28;20046;-93
2024/03/31 08:37:47;;;;;;;7.28;1.63;;;;;;;23.80;26.83;99323.72;4950890;28;20123;-95
2024/03/31 08:40:13;;;;;;;3.67;1.52;;;;;;;23.98;26.72;99329.59;4951982;28;20032;-96
2024/03/31 08:42:55;;;;;;;10.13;2.72;;;;;;;24.13;27.21;99319.69;4951928;28;20121;-96
2024/03/31 08:45:21;;;;;;;6.95;2.03;;;;;;;24.22;27.34;99314.00;4951863;28;20038;-95
2024/03/31 08:47:47;;;;;;;7.07;2.25;;;;;;;24.35;26.02;99315.44;4955697;28;20611;-94
2024/03/31 08:50:13;;;;;;;9.35;2.00;;;;;;;24.53;25.77;99309.50;4967996;28;20068;-96
2024/03/31 08:52:38;;;;;;;7.05;2.08;;;;;;;24.46;26.14;99292.84;4967102;28;20062;-95
2024/03/31 08:55:04;;;;;;;6.45;1.50;;;;;;;24.68;23.38;99308.63;4952045;28;20053;-96
2024/03/31 08:57:36;;;;;;;5.43;1.63;;;;;;;24.83;22.88;99304.19;4950678;28;20026;-95
2024/03/31 09:00:03;;;;;;;5.18;1.65;;;;;;;24.94;23.73;99305.16;4952198;28;20045;-94
2024/03/31 09:02:29;;;;;;;7.88;2.10;;;;;;;25.16;22.76;99314.59;4966881;28;20030;-95
2024/03/31 09:04:55;;;;;;;4.45;1.30;;;;;;;25.16;23.18;99297.28;4965691;28;20117;-94
2024/03/31 09:07:20;;;;;;;5.35;1.60;;;;;;;25.40;23.23;99316.22;4950422;28;20044;-96
2024/03/31 09:09:49;;;;;;;5.00;1.40;;;;;;;25.55;23.00;99308.16;4950813;28;20117;-94
2024/03/31 09:12:14;;;;;;;6.53;1.65;;;;;;;25.58;21.75;99285.34;4950340;28;20122;-94
2024/03/31 09:14:44;;;;;;;4.60;1.60;;;;;;;25.73;21.37;99300.94;4949465;28;20098;-94
2024/03/31 09:17:10;;;;;;;7.63;1.90;;;;;;;25.81;22.11;99282.50;4951190;28;20026;-94
2024/03/31 09:19:36;;;;;;;6.80;2.03;;;;;;;25.80;22.23;99270.69;4949028;28;20496;-93
2024/03/31 09:22:02;;;;;;;4.60;1.45;;;;;;;25.96;21.44;99270.53;4965100;28;20088;-93
2024/03/31 09:24:31;;;;;;;7.63;1.48;;;;;;;26.09;20.81;99273.06;4948894;28;20034;-94
2024/03/31 09:27:00;;;;;;;6.93;1.40;;;;;;;26.31;19.78;99294.22;4950299;28;20033;-95
2024/03/31 09:29:26;;;;;;;3.63;1.00;;;;;;;26.23;20.33;99269.66;4949897;28;20037;-96
2024/03/31 09:32:03;;;;;;;3.95;1.02;;;;;;;26.29;20.47;99259.88;4948129;28;20034;-94
2024/03/31 09:34:29;;;;;;;4.32;1.05;;;;;;;26.41;19.63;99271.44;4966462;28;20096;-95
2024/03/31 09:36:55;;;;;;;4.88;1.33;;;;;;;26.44;20.95;99260.81;4949636;28;20038;-94
2024/03/31 09:39:31;;;;;;;7.13;1.25;;;;;;;26.61;20.83;99260.25;4966440;28;20034;-96
2024/03/31 09:41:57;;;;;;;4.30;1.35;;;;;;;26.72;20.28;99263.13;4966564;28;20129;-95
2024/03/31 09:44:23;;;;;;;6.63;1.35;;;;;;;26.74;20.67;99263.53;4948611;28;20027;-95
2024/03/31 09:46:49;;;;;;;3.70;1.27;;;;;;;26.73;20.28;99253.66;4950256;28;20124;-96
2024/03/31 09:49:20;;;;;;;5.65;1.52;;;;;;;26.85;20.23;99253.38;4949204;28;20094;-95
2024/03/31 09:51:45;;;;;;;8.30;1.45;;;;;;;26.88;20.49;99244.31;4950608;28;20070;-94
2024/03/31 09:54:22;;;;;;;4.63;1.23;;;;;;;27.12;20.01;99267.00;4949538;28;20034;-95
2024/03/31 09:57:14;;;;;;;5.57;1.27;;;;;;;27.07;19.52;99259.88;4949111;28;20397;-94
2024/03/31 09:59:41;;;;;;;4.63;1.30;;;;;;;27.03;19.64;99253.53;4961563;28;20089;-95
2024/03/31 10:02:12;;;;;;;6.15;1.35;;;;;;;27.14;19.75;99248.06;4950264;28;20041;-94
2024/03/31 10:05:10;;;;;;;10.32;1.85;;;;;;;27.19;19.48;99254.06;4949232;28;20065;-95
2024/03/31 10:07:36;;;;;;;3.72;1.17;;;;;;;27.26;19.48;99244.25;4950637;28;20026;-94
2024/03/31 10:10:02;;;;;;;3.58;1.00;;;;;;;27.27;19.45;99254.94;4966077;28;20417;-95
2024/03/31 10:12:29;;;;;;;3.60;1.38;;;;;;;27.32;19.77;99246.25;4949474;28;20075;-95
2024/03/31 10:14:57;;;;;;;3.15;1.05;;;;;;;27.35;19.56;99237.22;4964037;28;20030;-95
2024/03/31 10:17:22;;;;;;;4.95;1.38;;;;;;;27.47;19.40;99241.63;4948454;28;20035;-94
2024/03/31 10:19:50;;;;;;;7.60;1.40;;;;;;;27.60;19.51;99240.13;4948142;28;20040;-95
2024/03/31 10:22:15;;;;;;;3.72;1.40;;;;;;;27.66;19.05;99235.00;4964913;28;20191;-95
2024/03/31 10:24:41;;;;;;;2.03;1.30;;;;;;;27.79;19.14;99236.28;4948616;28;20022;-95
2024/03/31 10:27:07;;;;;;;4.47;1.50;;;;;;;27.82;19.38;99229.94;4948648;28;20037;-95
2024/03/31 10:29:34;;;;;;;5.85;1.10;;;;;;;27.97;18.84;99228.09;4949742;28;20030;-95
2024/03/31 10:32:23;;;;;;;4.72;1.60;;;;;;;28.05;18.82;99236.41;4966468;28;20046;-95
2024/03/31 10:34:49;;;;;;;4.35;1.23;;;;;;;28.06;19.05;99226.91;4970476;28;20042;-94
2024/03/31 10:37:14;;;;;;;5.28;1.38;;;;;;;28.16;19.57;99229.72;4947827;28;20019;-95
2024/03/31 10:39:42;;;;;;;5.40;1.60;;;;;;;28.10;19.35;99205.56;4964122;28;20060;-94
2024/03/31 10:42:08;;;;;;;6.35;1.48;;;;;;;28.26;18.95;99211.53;4948498;28;20032;-95
2024/03/31 10:44:34;;;;;;;3.67;1.42;;;;;;;28.27;19.66;99204.84;4965650;28;20540;-95
2024/03/31 10:47:01;;;;;;;4.47;1.42;;;;;;;28.23;18.94;99206.81;4949505;28;20113;-96
2024/03/31 10:49:36;;;;;;;11.18;1.85;;;;;;;28.37;18.86;99212.38;4979788;28;20102;-95
2024/03/31 10:52:03;;;;;;;5.35;2.05;;;;;;;28.52;18.40;99215.19;4965480;28;20057;-95
2024/03/31 10:54:34;;;;;;;3.08;1.60;;;;;;;28.52;18.47;99212.44;4965621;28;20033;-94
2024/03/31 10:57:06;;;;;;;4.25;1.17;;;;;;;28.50;18.07;99198.19;4965169;28;20117;-94
2024/03/31 10:59:32;;;;;;;4.35;1.40;;;;;;;28.52;18.48;99206.88;4965085;28;20033;-96
2024/03/31 11:01:58;;;;;;;5.60;1.55;;;;;;;28.66;18.37;99212.44;4948234;28;20030;-94
2024/03/31 11:04:25;;;;;;;7.30;1.58;;;;;;;28.61;18.22;99193.44;4947366;28;20026;-94
2024/03/31 11:06:55;;;;;;;4.32;1.50;;;;;;;28.80;18.59;99209.69;4950848;28;20493;-96
2024/03/31 11:09:20;;;;;;;6.93;1.45;;;;;;;28.88;18.27;99206.91;4967072;28;20386;-95
2024/03/31 11:11:47;;;;;;;4.35;1.10;;;;;;;28.91;18.14;99195.00;4966044;28;20030;-95
2024/03/31 11:14:15;;;;;;;10.15;1.27;;;;;;;28.91;18.43;99175.59;4966606;28;20026;-96
2024/03/31 11:16:41;;;;;;;10.63;1.90;;;;;;;29.07;18.67;99195.38;4950814;28;20394;-95
2024/03/31 11:19:07;;;;;;;6.20;1.63;;;;;;;29.05;19.22;99180.34;4966175;28;20050;-96
2024/03/31 11:21:33;;;;;;;9.40;1.60;;;;;;;29.08;18.75;99176.78;4966420;28;20030;-96
2024/03/31 11:24:02;;;;;;;6.72;1.70;;;;;;;29.05;18.37;99177.56;4967600;28;20050;-95
2024/03/31 11:26:28;;;;;;;6.20;1.60;;;;;;;29.07;18.65;99181.53;4967466;28;20029;-96
2024/03/31 11:28:54;;;;;;;5.50;1.40;;;;;;;29.24;17.98;99176.38;4968471;28;20022;-95